Aviation Digital Data Service (ADDS)

Output produced by METARs form (1914 UTC 28 November 2014)
found at http://aviationweather.gov/adds/metars/
 
KAUG 281731Z 2818/2918 34005KT P6SM BKN060 
     FM282100 32005KT P6SM SCT050